Flight Track Log - Related Links

Times and Time Zones

All times are in EDT time to prevent confusion due to time zone crossing. See the AMX409 flight status page for this flight to view local times or setup timezone preferences in your user account.

Time Position Orientation Groundspeed Altitude Reporting Facility
EDT Latitude Longitude Course Direction KTS MPH feet Rate Location/Type
Fri 03:30:12 PM 40.6000 -73.7667 180° South 176 203 2,200  Level New York TRACON
Fri 03:31:06 PM 40.5500 -73.7667 180° South 252 290 4,500 3,300 Climbing New York TRACON
Fri 03:32:12 PM 40.5167 -73.8333 237° Southwest 267 307 8,800 3,048 Climbing New York TRACON
Fri 03:33:12 PM 40.4833 -73.9333 246° West 279 321 10,900 1,158 Climbing New York TRACON
Fri 03:34:06 PM 40.4500 -74.0000 237° Southwest 276 318 11,000 550 Climbing New York TRACON
Fri 03:35:12 PM 40.3833 -74.1000 229° Southwest 282 325 12,000 1,000 Climbing New York TRACON
Fri 03:36:12 PM 40.3333 -74.1667 225° Southwest 316 364 13,100 1,326 Climbing New York TRACON
Fri 03:38:22 PM 40.2369 -74.4008 242° Southwest 369 425 16,200 1,319 Climbing New York Center
Fri 03:39:23 PM 40.2036 -74.5375 252° West 369 425 17,300 2,115 Climbing New York Center
Fri 03:40:24 PM 40.2450 -74.6731 292° West 368 423 20,500 2,847 Climbing New York Center
Fri 03:41:21 PM 40.2800 -74.8083 289° West 380 437 22,900 2,288 Climbing New York Center
Fri 03:42:22 PM 40.2478 -74.9561 254° West 391 450 25,000 2,066 Climbing New York Center
Fri 03:43:23 PM 40.2047 -75.1111 250° West 420 483 27,100 2,311 Climbing New York Center
Fri 03:44:24 PM 40.1611 -75.2686 250° West 442 509 29,700 2,479 Climbing New York Center
Fri 03:45:24 PM 40.1117 -75.4147 246° West 455 524 32,100 2,513 Climbing New York Center
Fri 03:46:21 PM 40.0236 -75.5336 226° Southwest 449 517 34,600 2,136 Climbing New York Center
Fri 03:47:22 PM 39.9397 -75.6469 226° Southwest 449 517 36,300 1,438 Climbing New York Center
Fri 03:48:22 PM 39.8639 -75.7633 230° Southwest 443 510 37,500 793 Climbing New York Center
Fri 03:49:23 PM 39.8081 -75.8514 230° Southwest 449 517 37,900 246 Climbing New York Center
Fri 03:50:24 PM 39.7206 -75.9936 231° Southwest 444 511 38,000 50 Climbing New York Center
Fri 03:51:24 PM 39.6444 -76.1119 230° Southwest 439 505 38,000  Level New York Center
Fri 03:52:19 PM 39.5661 -76.2375 231° Southwest 433 498 38,000  Level Washington Center
Fri 03:53:20 PM 39.4883 -76.3553 229° Southwest 418 481 38,000  Level Washington Center
Fri 03:54:21 PM 39.4125 -76.4753 231° Southwest 423 487 38,000  Level Washington Center
Fri 03:55:19 PM 39.3344 -76.5950 230° Southwest 434 499 38,000  Level Washington Center
Fri 03:56:20 PM 39.2561 -76.7147 230° Southwest 434 499 38,000  Level Washington Center
Fri 03:57:19 PM 39.1822 -76.8339 231° Southwest 434 499 38,000  Level Washington Center
Fri 03:58:20 PM 39.1122 -76.9372 229° Southwest 434 499 38,000  Level Washington Center
Fri 03:59:20 PM 39.0381 -77.0428 228° Southwest 434 499 38,000  Level Washington Center
Fri 04:00:21 PM 38.9428 -77.1636 225° Southwest 434 499 38,000  Level Washington Center
Fri 04:01:18 PM 38.8578 -77.2792 227° Southwest 444 511 38,000  Level Washington Center
Fri 04:02:19 PM 38.7708 -77.3889 225° Southwest 444 511 38,000  Level Washington Center
Fri 04:03:20 PM 38.6836 -77.5011 225° Southwest 449 517 38,000  Level Washington Center
Fri 04:04:20 PM 38.5983 -77.6158 226° Southwest 449 517 38,000  Level Washington Center
Fri 04:05:19 PM 38.5108 -77.7303 226° Southwest 449 517 38,000  Level Washington Center
Fri 04:06:20 PM 38.4253 -77.8417 226° Southwest 449 517 38,000  Level Washington Center
Fri 04:07:20 PM 38.3397 -77.9531 226° Southwest 449 517 38,000  Level Washington Center
Fri 04:08:21 PM 38.2519 -78.0639 225° Southwest 449 517 38,000  Level Washington Center
Fri 04:09:19 PM 38.1664 -78.1747 226° Southwest 449 517 38,000  Level Washington Center
Fri 04:10:20 PM 38.0783 -78.2878 225° Southwest 449 517 38,000  Level Washington Center
Fri 04:11:21 PM 37.9858 -78.4056 225° Southwest 444 511 38,000  Level Washington Center
Fri 04:12:19 PM 37.8978 -78.5181 225° Southwest 444 511 38,000  Level Washington Center
Fri 04:13:19 PM 37.8161 -78.6175 224° Southwest 450 518 38,000  Level Washington Center
Fri 04:14:21 PM 37.7278 -78.7294 225° Southwest 450 518 38,000  Level Washington Center
Fri 04:15:21 PM 37.6369 -78.8411 224° Southwest 450 518 38,000  Level Washington Center
Fri 04:16:21 PM 37.5464 -78.9550 225° Southwest 450 518 38,000  Level Washington Center
Fri 04:17:19 PM 37.4425 -79.0786 223° Southwest 455 524 38,000  Level Washington Center
Fri 04:18:19 PM 37.3475 -79.1892 223° Southwest 455 524 38,000  Level Washington Center
Fri 04:19:20 PM 37.2564 -79.3050 225° Southwest 460 529 38,000  Level Washington Center
Fri 04:20:21 PM 37.1631 -79.4203 225° Southwest 465 535 38,000  Level Washington Center
Fri 04:21:19 PM 37.0717 -79.5356 225° Southwest 472 543 38,000  Level Washington Center
Fri 04:22:20 PM 36.9847 -79.6403 224° Southwest 472 543 38,000  Level Washington Center
Fri 04:23:20 PM 36.8953 -79.7525 225° Southwest 472 543 38,000  Level Washington Center
Fri 04:24:50 PM 36.7444 -79.9275 223° Southwest 477 549 38,000  Level Atlanta Center
Fri 04:25:50 PM 36.6642 -80.0275 225° Southwest 467 537 38,000  Level Atlanta Center
Fri 04:26:50 PM 36.5719 -80.1381 224° Southwest 462 532 38,000  Level Atlanta Center
Fri 04:27:50 PM 36.4772 -80.2458 222° Southwest 462 532 38,000  Level Atlanta Center
Fri 04:28:50 PM 36.3889 -80.3533 224° Southwest 462 532 38,000  Level Atlanta Center
Fri 04:29:50 PM 36.2900 -80.4711 224° Southwest 462 532 38,000  Level Atlanta Center
Fri 04:30:50 PM 36.1953 -80.5808 223° Southwest 462 532 38,000  Level Atlanta Center
Fri 04:31:50 PM 36.1086 -80.6900 226° Southwest 457 526 38,000  Level Atlanta Center
Fri 04:32:50 PM 36.0133 -80.7967 222° Southwest 464 534 38,000  Level Atlanta Center
Fri 04:33:50 PM 35.9225 -80.9078 225° Southwest 464 534 38,000  Level Atlanta Center
Fri 04:34:50 PM 35.8269 -81.0167 223° Southwest 469 540 38,000  Level Atlanta Center
Fri 04:35:50 PM 35.7336 -81.1250 223° Southwest 464 534 38,000  Level Atlanta Center
Fri 04:36:50 PM 35.6322 -81.2408 223° Southwest 474 545 38,000  Level Atlanta Center
Fri 04:37:50 PM 35.5364 -81.3489 223° Southwest 479 551 38,000  Level Atlanta Center
Fri 04:38:50 PM 35.4389 -81.4667 225° Southwest 491 565 38,000  Level Atlanta Center
Fri 04:39:50 PM 35.3431 -81.5767 223° Southwest 486 559 38,000  Level Atlanta Center
Fri 04:40:50 PM 35.2450 -81.6864 222° Southwest 486 559 38,000  Level Atlanta Center
Fri 04:41:50 PM 35.1492 -81.7958 223° Southwest 486 559 38,000  Level Atlanta Center
Fri 04:42:50 PM 35.0508 -81.9075 223° Southwest 486 559 38,000  Level Atlanta Center
Fri 04:43:50 PM 34.9694 -82.0314 231° Southwest 482 555 38,000  Level Atlanta Center
Fri 04:44:50 PM 34.8942 -82.1572 234° Southwest 475 547 38,000  Level Atlanta Center
Fri 04:45:50 PM 34.8169 -82.2856 234° Southwest 469 540 38,000  Level Atlanta Center
Fri 04:46:50 PM 34.7456 -82.4008 233° Southwest 476 548 38,000  Level Atlanta Center
Fri 04:47:50 PM 34.6656 -82.5261 232° Southwest 476 548 38,000  Level Atlanta Center
Fri 04:48:50 PM 34.5756 -82.6639 232° Southwest 481 554 38,000  Level Atlanta Center
Fri 04:49:50 PM 34.4956 -82.7961 234° Southwest 481 554 38,000  Level Atlanta Center
Fri 04:50:50 PM 34.4194 -82.9208 234° Southwest 475 547 38,000  Level Atlanta Center
Fri 04:51:50 PM 34.3411 -83.0475 233° Southwest 480 552 38,000  Level Atlanta Center
Fri 04:52:50 PM 34.2628 -83.1767 234° Southwest 480 552 38,000  Level Atlanta Center
Fri 04:53:50 PM 34.1864 -83.3006 233° Southwest 480 552 38,000  Level Atlanta Center
Fri 04:54:50 PM 34.1058 -83.4267 232° Southwest 480 552 38,000  Level Atlanta Center
Fri 04:55:50 PM 34.0353 -83.5425 234° Southwest 480 552 38,000  Level Atlanta Center
Fri 04:56:50 PM 33.9544 -83.6681 232° Southwest 480 552 38,000  Level Atlanta Center
Fri 04:57:50 PM 33.8753 -83.7936 233° Southwest 480 552 38,000  Level Atlanta Center
Fri 04:58:50 PM 33.7964 -83.9189 233° Southwest 480 552 38,000  Level Atlanta Center
Fri 04:59:50 PM 33.7150 -84.0439 232° Southwest 480 552 38,000  Level Atlanta Center
Fri 05:00:50 PM 33.6292 -84.1836 234° Southwest 480 552 38,000  Level Atlanta Center
Fri 05:01:50 PM 33.5478 -84.3081 232° Southwest 481 554 38,000  Level Atlanta Center
Fri 05:02:50 PM 33.4681 -84.4322 232° Southwest 481 554 38,000  Level Atlanta Center
Fri 05:03:50 PM 33.3925 -84.5564 234° Southwest 481 554 38,000  Level Atlanta Center
Fri 05:04:50 PM 33.3147 -84.6753 232° Southwest 473 544 38,000  Level Atlanta Center
Fri 05:05:50 PM 33.2389 -84.7939 233° Southwest 463 533 38,000  Level Atlanta Center
Fri 05:06:50 PM 33.1692 -84.9025 233° Southwest 457 526 38,000  Level Atlanta Center
Fri 05:07:50 PM 33.0953 -85.0158 232° Southwest 452 520 38,000  Level Atlanta Center
Fri 05:08:50 PM 33.0192 -85.1314 232° Southwest 452 520 38,000  Level Atlanta Center
Fri 05:09:50 PM 32.9472 -85.2419 232° Southwest 441 507 38,000  Level Atlanta Center
Fri 05:10:50 PM 32.8731 -85.3547 232° Southwest 441 507 38,000  Level Atlanta Center
Fri 05:11:50 PM 32.7967 -85.4647 230° Southwest 441 507 38,000  Level Atlanta Center
Fri 05:12:50 PM 32.7222 -85.5769 232° Southwest 441 507 38,000  Level Atlanta Center
Fri 05:13:50 PM 32.6456 -85.6892 231° Southwest 441 507 38,000  Level Atlanta Center
Fri 05:14:50 PM 32.5689 -85.8036 232° Southwest 441 507 38,000  Level Atlanta Center
Fri 05:15:50 PM 32.4814 -85.9322 231° Southwest 448 516 38,000  Level Atlanta Center
Fri 05:16:50 PM 32.4044 -86.0464 231° Southwest 448 516 38,000  Level Atlanta Center
Fri 05:17:50 PM 32.3339 -86.1553 233° Southwest 434 499 38,000  Level Atlanta Center
Fri 05:18:50 PM 32.2631 -86.2642 232° Southwest 434 499 38,000  Level Atlanta Center
Fri 05:19:50 PM 32.1858 -86.3800 232° Southwest 449 517 38,000  Level Atlanta Center
Fri 05:20:50 PM 32.1214 -86.4717 230° Southwest 439 505 38,000  Level Atlanta Center
Fri 05:21:50 PM 32.0461 -86.5797 231° Southwest 434 499 38,000  Level Atlanta Center
Fri 05:22:50 PM 31.9561 -86.6947 227° Southwest 434 499 38,000  Level Atlanta Center
Fri 05:23:50 PM 31.8808 -86.7978 229° Southwest 441 507 38,000  Level Atlanta Center
Fri 05:24:50 PM 31.8053 -86.9006 229° Southwest 428 493 38,000  Level Atlanta Center
Fri 05:25:50 PM 31.7319 -87.0006 229° Southwest 422 486 38,000  Level Atlanta Center
Fri 05:26:50 PM 31.6714 -87.0889 231° Southwest 414 476 38,000  Level Atlanta Center
Fri 05:27:50 PM 31.5958 -87.1936 230° Southwest 416 479 38,000  Level Atlanta Center
Fri 05:28:48 PM 31.5156 -87.2967 228° Southwest 429 494 38,000  Level Houston Center
Fri 05:29:51 PM 31.4394 -87.4050 231° Southwest 432 497 38,000  Level Houston Center
Fri 05:30:53 PM 31.3614 -87.5119 229° Southwest 433 498 38,000  Level Houston Center
Fri 05:31:55 PM 31.2825 -87.6208 230° Southwest 439 505 38,000  Level Houston Center
Fri 05:32:57 PM 31.1919 -87.7408 229° Southwest 443 510 38,000  Level Houston Center
Fri 05:33:59 PM 31.1103 -87.8503 229° Southwest 447 514 38,000  Level Houston Center
Fri 05:35:01 PM 31.0278 -87.9586 228° Southwest 448 516 38,000  Level Houston Center
Fri 05:36:03 PM 30.9278 -88.0883 228° Southwest 454 522 38,000  Level Houston Center
Fri 05:37:05 PM 30.8464 -88.1986 229° Southwest 449 517 38,000  Level Houston Center
Fri 05:38:08 PM 30.7647 -88.3061 229° Southwest 445 512 38,000  Level Houston Center
Fri 05:39:10 PM 30.6981 -88.4200 236° Southwest 447 514 38,000  Level Houston Center
Fri 05:40:12 PM 30.6450 -88.5514 245° Southwest 449 517 38,000  Level Houston Center
Fri 05:41:14 PM 30.5811 -88.7081 245° Southwest 449 517 38,000  Level Houston Center
Fri 05:42:16 PM 30.5253 -88.8386 244° Southwest 451 519 38,000 -48 Level Houston Center
Fri 05:43:18 PM 30.4686 -88.9747 244° Southwest 456 525 37,900 -48 Descending Houston Center
Fri 05:44:20 PM 30.4122 -89.1047 243° Southwest 453 521 37,900 48 Level Houston Center
Fri 05:45:22 PM 30.3569 -89.2350 244° Southwest 451 519 38,000 48 Climbing Houston Center
Fri 05:46:24 PM 30.3025 -89.3631 244° Southwest 445 512 38,000  Level Houston Center
Fri 05:47:26 PM 30.2456 -89.4914 243° Southwest 445 512 38,000  Level Houston Center
Fri 05:48:28 PM 30.1769 -89.6467 243° Southwest 446 513 38,000  Level Houston Center
Fri 05:49:30 PM 30.1167 -89.7764 242° Southwest 450 518 38,000  Level Houston Center
Fri 05:50:33 PM 30.0419 -89.8917 233° Southwest 444 511 38,000 -48 Level Houston Center
Fri 05:51:35 PM 29.9678 -90.0056 233° Southwest 443 510 37,900  Descending Houston Center
Fri 05:52:37 PM 29.8936 -90.1181 233° Southwest 441 507 38,000  Climbing Houston Center
Fri 05:53:39 PM 29.8178 -90.2292 232° Southwest 440 506 37,900  Descending Houston Center
Fri 05:54:41 PM 29.7239 -90.3164 219° Southwest 433 498 38,000 48 Climbing Houston Center
Fri 05:55:43 PM 29.6067 -90.4136 216° Southwest 433 498 38,000 -48 Level Houston Center
Fri 05:56:45 PM 29.5233 -90.5117 226° Southwest 440 506 37,900  Descending Houston Center
Fri 05:57:47 PM 29.4736 -90.6397 246° West 441 507 38,000 48 Climbing Houston Center
Fri 05:58:49 PM 29.4353 -90.7753 252° West 446 513 38,000  Level Houston Center
Fri 05:59:51 PM 29.3739 -90.8967 240° Southwest 449 517 38,000 -48 Level Houston Center
Fri 06:00:53 PM 29.2981 -91.0064 232° Southwest 439 505 37,900  Descending Houston Center
Fri 06:01:54 PM 29.2222 -91.1183 228° Southwest 443 510 38,000 49 Climbing Houston Center
Fri 06:02:00 PM 29.2082 -91.1212 228° Southwest  Level FlightAware Approximate
Fri 06:02:56 PM 29.1314 -91.2531 232° Southwest 444 511 38,000  Level Houston Center
Fri 06:03:58 PM 29.0558 -91.3656 232° Southwest 446 513 38,000  Level Houston Center
Fri 06:05:00 PM 28.9786 -91.4783 232° Southwest 449 517 38,000  Level Houston Center
Fri 06:06:02 PM 28.8997 -91.5900 231° Southwest 452 520 38,000  Level Houston Center
Fri 06:08:06 PM 28.7433 -91.8178 232° Southwest 457 526 38,000 175 Level Houston Center
Fri 06:11:11 PM 28.4875 -92.1878 232° Southwest 467 537 38,900 486 Climbing Houston Center
Fri 06:12:13 PM 28.4067 -92.3028 231° Southwest 467 537 40,000 484 Climbing Houston Center
Fri 06:13:15 PM 28.3269 -92.4164 231° Southwest 462 532 39,900  Descending Houston Center
Fri 06:14:17 PM 28.2475 -92.5294 231° Southwest 459 528 40,000 48 Climbing Houston Center
Fri 06:15:19 PM 28.1578 -92.6375 227° Southwest 469 540 40,000  Level Houston Center
Fri 06:16:21 PM 28.0361 -92.7481 219° Southwest 476 548 40,000  Level Houston Center
Fri 06:17:22 PM 27.9233 -92.8261 211° Southwest 476 548 40,000  Level Houston Center
Fri 06:19:00 PM 27.7540 -92.9407 211° Southwest  Level FlightAware Approximate
Fri 06:26:00 PM 27.0297 -93.4322 212° Southwest  Level FlightAware Approximate
Fri 06:27:00 PM 26.9268 -93.5033 212° Southwest  Level FlightAware Approximate
Fri 06:28:00 PM 26.8234 -93.5734 211° Southwest  Level FlightAware Approximate
Fri 06:29:00 PM 26.7197 -93.6427 211° Southwest  Level FlightAware Approximate
Fri 06:30:00 PM 26.6158 -93.7118 211° Southwest  Level FlightAware Approximate
Fri 06:31:00 PM 26.5123 -93.7814 212° Southwest  Level FlightAware Approximate
Fri 06:32:00 PM 26.4099 -93.8531 212° Southwest  Level FlightAware Approximate
Fri 06:33:00 PM 26.3068 -93.9234 211° Southwest  Level FlightAware Approximate
Fri 06:34:00 PM 26.2032 -93.9927 211° Southwest  Level FlightAware Approximate
Fri 06:35:00 PM 26.0996 -94.0618 211° Southwest  Level FlightAware Approximate
Fri 06:36:00 PM 25.9959 -94.1309 211° Southwest  Level FlightAware Approximate
Fri 06:37:00 PM 25.8921 -94.1998 211° Southwest  Level FlightAware Approximate
Fri 06:38:00 PM 25.7886 -94.2690 211° Southwest  Level FlightAware Approximate
Fri 06:39:00 PM 25.6851 -94.3382 211° Southwest  Level FlightAware Approximate
Fri 06:40:00 PM 25.5816 -94.4072 211° Southwest  Level FlightAware Approximate
Fri 06:41:00 PM 25.4780 -94.4762 211° Southwest  Level FlightAware Approximate
Fri 06:42:00 PM 25.3744 -94.5450 211° Southwest  Level FlightAware Approximate
Fri 06:43:00 PM 25.2702 -94.6127 210° Southwest  Level FlightAware Approximate
Fri 06:44:00 PM 25.1653 -94.6789 210° Southwest  Level FlightAware Approximate
Fri 06:45:00 PM 25.0603 -94.7450 210° Southwest  Level FlightAware Approximate
Fri 06:46:00 PM 24.9553 -94.8109 210° Southwest  Level FlightAware Approximate
Fri 06:47:00 PM 24.8503 -94.8768 210° Southwest  Level FlightAware Approximate
Fri 06:48:00 PM 24.7453 -94.9425 210° Southwest  Level FlightAware Approximate
Fri 06:49:00 PM 24.6402 -95.0082 210° Southwest  Level FlightAware Approximate
Fri 06:50:00 PM 24.5351 -95.0737 210° Southwest  Level FlightAware Approximate
Fri 06:51:00 PM 24.4299 -95.1391 210° Southwest  Level FlightAware Approximate
Fri 06:52:00 PM 24.3248 -95.2044 210° Southwest  Level FlightAware Approximate
Fri 06:53:00 PM 24.2196 -95.2696 209° Southwest  Level FlightAware Approximate
Fri 06:54:00 PM 24.1144 -95.3347 209° Southwest  Level FlightAware Approximate
Fri 06:55:00 PM 24.0091 -95.3997 209° Southwest  Level FlightAware Approximate
Fri 06:56:00 PM 23.9039 -95.4646 209° Southwest  Level FlightAware Approximate
Fri 06:57:00 PM 23.7985 -95.5294 209° Southwest  Level FlightAware Approximate
Fri 06:58:00 PM 23.6932 -95.5940 209° Southwest  Level FlightAware Approximate
Fri 06:59:00 PM 23.5879 -95.6586 209° Southwest  Level FlightAware Approximate
Fri 07:00:00 PM 23.4825 -95.7231 209° Southwest  Level FlightAware Approximate
Fri 07:01:00 PM 23.3771 -95.7874 209° Southwest  Level FlightAware Approximate
Fri 07:02:00 PM 23.2717 -95.8517 209° Southwest  Level FlightAware Approximate
Fri 07:03:00 PM 23.1662 -95.9158 209° Southwest  Level FlightAware Approximate
Fri 07:04:00 PM 23.0607 -95.9799 209° Southwest  Level FlightAware Approximate
Fri 07:05:00 PM 22.9554 -96.0442 210° Southwest  Level FlightAware Approximate
Fri 07:06:00 PM 22.8503 -96.1089 210° Southwest  Level FlightAware Approximate
Fri 07:07:00 PM 22.7449 -96.1731 209° Southwest  Level FlightAware Approximate
Fri 07:08:00 PM 22.6393 -96.2366 209° Southwest  Level FlightAware Approximate
Fri 07:09:00 PM 22.5336 -96.3000 209° Southwest  Level FlightAware Approximate
Fri 07:10:00 PM 22.4279 -96.3634 209° Southwest  Level FlightAware Approximate
Fri 07:11:00 PM 22.3221 -96.4264 209° Southwest  Level FlightAware Approximate
Fri 07:12:00 PM 22.2161 -96.4891 209° Southwest  Level FlightAware Approximate
Fri 07:13:00 PM 22.1101 -96.5517 209° Southwest  Level FlightAware Approximate
Fri 07:14:00 PM 22.0040 -96.6142 209° Southwest  Level FlightAware Approximate
Fri 07:15:00 PM 21.8980 -96.6766 209° Southwest  Level FlightAware Approximate
Fri 07:16:00 PM 21.7919 -96.7389 209° Southwest  Level FlightAware Approximate
Fri 07:17:00 PM 21.6858 -96.8011 209° Southwest  Level FlightAware Approximate
Fri 07:18:00 PM 21.5797 -96.8632 209° Southwest  Level FlightAware Approximate
Fri 07:19:00 PM 21.4735 -96.9252 209° Southwest  Level FlightAware Approximate
Fri 07:20:00 PM 21.3673 -96.9872 209° Southwest  Level FlightAware Approximate
Fri 07:21:00 PM 21.2620 -97.0506 210° Southwest  Level FlightAware Approximate
Fri 07:22:00 PM 21.1574 -97.1154 210° Southwest  Level FlightAware Approximate
Fri 07:23:00 PM 21.0527 -97.1802 210° Southwest  Level FlightAware Approximate
Fri 07:24:00 PM 20.9477 -97.2440 208° Southwest  Level FlightAware Approximate
Fri 07:25:00 PM 20.8407 -97.3043 208° Southwest  Level FlightAware Approximate
Fri 07:26:00 PM 20.7338 -97.3644 208° Southwest  Level FlightAware Approximate
Fri 07:27:00 PM 20.6299 -97.4301 212° Southwest  Level FlightAware Approximate
Fri 07:28:00 PM 20.5457 -97.5207 231° Southwest  Level FlightAware Approximate
Fri 07:29:00 PM 20.4690 -97.6204 231° Southwest  Level FlightAware Approximate
Fri 07:30:00 PM 20.3935 -97.7210 232° Southwest  Level FlightAware Approximate
Fri 07:31:00 PM 20.3191 -97.8226 232° Southwest  Level FlightAware Approximate
Fri 07:32:00 PM 20.2447 -97.9241 233° Southwest  Level FlightAware Approximate
Fri 07:33:00 PM 20.1717 -98.0266 233° Southwest  Level FlightAware Approximate
Fri 07:34:00 PM 20.0986 -98.1291 233° Southwest  Level FlightAware Approximate
Fri 07:35:00 PM 20.0254 -98.2315 233° Southwest  Level FlightAware Approximate
Fri 07:36:00 PM 19.9522 -98.3337 233° Southwest  Level FlightAware Approximate
Fri 07:37:00 PM 19.8779 -98.4351 231° Southwest  Level FlightAware Approximate
Fri 07:38:00 PM 19.8124 -98.5392 232° Southwest  Level FlightAware Approximate
Fri 07:39:00 PM 19.7386 -98.6408 232° Southwest  Level FlightAware Approximate
Fri 07:40:00 PM 19.6643 -98.7420 231° Southwest  Level FlightAware Approximate
Fri 07:41:00 PM 19.5891 -98.8424 231° Southwest  Level FlightAware Approximate
Fri 07:42:00 PM 19.5164 -98.9393 232° Southwest  Level FlightAware Approximate
Fri 07:43:00 PM 19.4395 -99.0381 230° Southwest  Level FlightAware Approximate
Fri 07:44:00 PM 19.4167 -99.0667 230° Southwest  Level FlightAware Approximate
Fri 07:45:00 PM 19.4363 -99.0721 230° Southwest  Level Estimated
Fri 07:46:00 PM 19.4363 -99.0721 230° Southwest  Level Estimated
Fri 07:47:00 PM 19.4363 -99.0721 230° Southwest  Level Estimated
Fri 07:48:00 PM 19.4363 -99.0721 230° Southwest  Level Estimated
Fri 07:49:00 PM 19.4363 -99.0721 230° Southwest  Level Estimated
Fri 07:50:00 PM 19.4363 -99.0721 230° Southwest  Level Estimated
Fri 07:51:00 PM 19.4363 -99.0721 230° Southwest  Level Estimated
Fri 07:52:00 PM 19.4363 -99.0721 230° Southwest  Level Estimated
Fri 07:53:00 PM 19.4363 -99.0721 230° Southwest  Level Estimated
Fri 07:54:00 PM 19.4363 -99.0721 230° Southwest  Level Estimated
Fri 07:55:00 PM 19.4363 -99.0721 230° Southwest  Level Estimated
Fri 07:56:00 PM 19.4363 -99.0721 230° Southwest  Level Estimated
Fri 07:57:00 PM 19.4363 -99.0721 230° Southwest  Level Estimated
Fri 07:58:00 PM 19.4363 -99.0721 230° Southwest  Level Estimated
Fri 07:59:00 PM 19.4363 -99.0721 230° Southwest  Level Estimated
Fri 08:00:00 PM 19.4363 -99.0721 230° Southwest  Level Estimated
Fri 08:01:00 PM 19.4363 -99.0721 230° Southwest  Level Estimated

Login

Don't have an account? Register now (free) for customized features, flight alerts, and more!